Time;durP1;ratioP1;P1;durP2;ratioP2;P2;SDS_P1;SDS_P2;PMS_P1;PMS_P2;Temp;Humidity;BMP_temperature;BMP_pressure;BME280_temperature;BME280_humidity;BME280_pressure;Samples;Min_cycle;Max_cycle;Signal;HPM_P1;HPM_P2
2022/04/04 00:01:03;;;;;;;56.03;29.53;;;0.40;99.90;;;;;;10280013;28;20113;-82
2022/04/04 00:06:05;;;;;;;60.90;31.43;;;0.30;99.90;;;;;;10298830;23;20062;-82
2022/04/04 00:11:06;;;;;;;57.87;30.67;;;0.30;99.90;;;;;;10326280;28;20038;-82
2022/04/04 00:16:07;;;;;;;60.40;31.17;;;0.30;99.90;;;;;;10324779;28;20034;-83
2022/04/04 00:21:08;;;;;;;77.13;37.43;;;0.20;99.90;;;;;;10326980;28;20479;-82
2022/04/04 00:26:09;;;;;;;56.93;30.83;;;0.20;99.90;;;;;;10326013;28;20053;-83
2022/04/04 00:31:09;;;;;;;52.73;26.23;;;0.20;99.90;;;;;;10336576;28;20033;-82
2022/04/04 00:36:10;;;;;;;52.90;26.73;;;0.20;99.90;;;;;;10365324;28;20030;-82
2022/04/04 00:41:12;;;;;;;56.53;28.93;;;0.20;99.90;;;;;;10362933;28;20148;-83
2022/04/04 00:46:13;;;;;;;50.57;26.00;;;0.20;99.90;;;;;;10366365;28;20113;-82
2022/04/04 00:51:14;;;;;;;49.60;25.83;;;0.10;99.90;;;;;;10368872;28;20117;-83
2022/04/04 00:56:14;;;;;;;51.30;26.57;;;0.20;99.90;;;;;;10375607;28;20026;-83
2022/04/04 01:01:15;;;;;;;51.07;26.20;;;0.10;99.90;;;;;;10372783;28;20025;-83
2022/04/04 01:06:16;;;;;;;59.70;30.30;;;0.10;99.90;;;;;;10374749;28;20092;-83
2022/04/04 01:11:17;;;;;;;66.80;33.20;;;0.10;99.90;;;;;;10356978;28;20097;-82
2022/04/04 01:16:18;;;;;;;67.20;33.00;;;0.10;99.90;;;;;;10374013;28;20113;-83
2022/04/04 01:21:19;;;;;;;60.60;30.47;;;0.10;99.90;;;;;;10373656;28;20108;-82
2022/04/04 01:26:20;;;;;;;72.67;33.37;;;0.10;99.90;;;;;;10373521;28;20034;-83
2022/04/04 01:31:21;;;;;;;69.03;32.90;;;0.10;99.90;;;;;;10362997;28;20022;-82
2022/04/04 01:36:21;;;;;;;66.93;31.83;;;0.00;99.90;;;;;;10356041;28;20030;-82
2022/04/04 01:41:22;;;;;;;64.17;31.90;;;0.00;99.90;;;;;;10369594;28;20029;-83
2022/04/04 01:46:27;;;;;;;64.77;32.63;;;0.00;99.90;;;;;;10371783;28;20112;-82
2022/04/04 01:51:28;;;;;;;60.43;31.43;;;-0.10;99.90;;;;;;10371360;28;20103;-82
2022/04/04 01:56:29;;;;;;;65.63;31.13;;;-0.10;99.90;;;;;;10371628;28;20045;-82
2022/04/04 02:01:34;;;;;;;63.03;31.40;;;-0.10;99.90;;;;;;10371443;28;20030;-83
2022/04/04 02:06:35;;;;;;;60.30;32.57;;;-0.20;99.90;;;;;;10371744;28;20049;-83
2022/04/04 02:11:36;;;;;;;53.43;29.57;;;-0.20;99.90;;;;;;10371100;28;20022;-83
2022/04/04 02:16:36;;;;;;;53.70;31.90;;;-0.20;99.90;;;;;;10371165;28;20445;-83
2022/04/04 02:21:37;;;;;;;54.83;30.40;;;-0.30;99.90;;;;;;10372507;28;20034;-82
2022/04/04 02:26:38;;;;;;;46.97;26.30;;;-0.40;99.90;;;;;;10370954;28;20034;-83
2022/04/04 02:31:39;;;;;;;48.23;27.10;;;-0.40;99.90;;;;;;10369463;28;20121;-82
2022/04/04 02:36:39;;;;;;;47.07;27.23;;;-0.50;99.90;;;;;;10370773;28;20038;-82
2022/04/04 02:41:40;;;;;;;42.70;23.63;;;-0.50;99.90;;;;;;10386658;23;20066;-82
2022/04/04 02:46:40;;;;;;;46.77;25.40;;;-0.60;99.90;;;;;;10368858;28;20025;-82
2022/04/04 02:51:41;;;;;;;44.67;25.43;;;-0.60;99.90;;;;;;10369366;28;20034;-82
2022/04/04 02:56:42;;;;;;;46.90;24.67;;;-0.60;99.90;;;;;;10369880;28;20137;-82
2022/04/04 03:01:48;;;;;;;50.27;28.63;;;-0.50;99.90;;;;;;10365676;28;20577;-81
2022/04/04 03:06:49;;;;;;;47.73;30.17;;;-0.40;99.90;;;;;;10372838;28;20352;-82
2022/04/04 03:11:49;;;;;;;48.67;28.93;;;-0.40;99.90;;;;;;10368700;28;20026;-83
2022/04/04 03:16:50;;;;;;;47.97;28.20;;;-0.30;99.90;;;;;;10367267;28;20038;-82
2022/04/04 03:21:54;;;;;;;51.07;30.43;;;-0.20;99.90;;;;;;10370659;28;20025;-83
2022/04/04 03:26:55;;;;;;;50.27;28.73;;;-0.20;99.90;;;;;;10368173;28;20037;-84
2022/04/04 03:31:55;;;;;;;54.97;32.27;;;-0.30;99.90;;;;;;10367535;28;20038;-81
2022/04/04 03:36:56;;;;;;;48.00;27.37;;;-0.40;99.90;;;;;;10368927;28;20045;-84
2022/04/04 03:41:58;;;;;;;42.23;25.33;;;-0.40;99.90;;;;;;10368624;28;20062;-84
2022/04/04 03:46:58;;;;;;;43.73;24.60;;;-0.50;99.90;;;;;;10367677;28;20626;-81
2022/04/04 03:51:59;;;;;;;46.70;25.43;;;-0.60;99.90;;;;;;10367807;28;20029;-81
2022/04/04 03:57:00;;;;;;;39.80;24.20;;;-0.70;99.90;;;;;;10367137;28;20049;-82
2022/04/04 04:02:01;;;;;;;50.57;26.77;;;-0.80;99.90;;;;;;10367802;28;20026;-81
2022/04/04 04:07:02;;;;;;;43.73;26.80;;;-0.80;99.90;;;;;;10368744;28;20034;-83
2022/04/04 04:12:03;;;;;;;59.20;32.40;;;-0.80;99.90;;;;;;10377776;28;20069;-81
2022/04/04 04:17:04;;;;;;;60.67;32.77;;;-0.80;99.90;;;;;;10388741;28;20104;-80
2022/04/04 04:22:05;;;;;;;56.00;31.20;;;-0.80;99.90;;;;;;10366236;28;20474;-80
2022/04/04 04:27:06;;;;;;;51.87;28.47;;;-0.70;99.90;;;;;;10359165;28;20061;-78
2022/04/04 04:32:10;;;;;;;52.00;28.67;;;-0.60;99.90;;;;;;10365014;28;20482;-81
2022/04/04 04:37:11;;;;;;;48.13;28.47;;;-0.50;99.90;;;;;;10358575;28;20037;-82
2022/04/04 04:42:11;;;;;;;44.67;26.73;;;-0.40;99.90;;;;;;10366880;28;20057;-82
2022/04/04 04:47:14;;;;;;;40.33;23.83;;;-0.10;99.90;;;;;;10360893;28;20034;-83
2022/04/04 04:52:15;;;;;;;41.07;23.20;;;0.00;99.90;;;;;;10324637;28;20402;-82
2022/04/04 04:57:29;;;;;;;42.93;22.10;;;-0.20;99.90;;;;;;10308934;28;20038;-82
2022/04/04 05:02:30;;;;;;;58.30;26.83;;;-0.30;99.90;;;;;;10326008;28;20478;-81
2022/04/04 05:07:31;;;;;;;57.47;32.13;;;-0.30;99.90;;;;;;10309285;28;20088;-82
2022/04/04 05:12:32;;;;;;;97.47;45.13;;;-0.20;99.90;;;;;;10308529;28;20030;-82
2022/04/04 05:17:32;;;;;;;200.67;72.50;;;-0.20;99.90;;;;;;10325842;28;20490;-82
2022/04/04 05:22:33;;;;;;;139.93;59.00;;;-0.10;99.90;;;;;;10344737;28;20061;-83
2022/04/04 05:27:34;;;;;;;90.00;38.77;;;0.10;99.90;;;;;;10362049;28;20066;-82
2022/04/04 05:32:35;;;;;;;166.87;59.90;;;0.20;99.90;;;;;;10354655;28;20042;-85
2022/04/04 05:37:36;;;;;;;86.77;37.10;;;0.40;99.90;;;;;;10364867;28;20128;-84
2022/04/04 05:42:36;;;;;;;129.07;53.53;;;0.40;99.90;;;;;;10361970;28;20112;-82
2022/04/04 05:47:37;;;;;;;95.93;41.97;;;0.50;99.90;;;;;;10346824;28;20030;-84
2022/04/04 05:52:37;;;;;;;69.47;33.33;;;0.50;99.90;;;;;;10331105;28;20038;-85
2022/04/04 05:57:39;;;;;;;66.83;31.07;;;0.50;99.90;;;;;;10351798;28;20034;-84
2022/04/04 06:02:41;;;;;;;92.63;41.70;;;0.70;99.90;;;;;;10363772;28;20029;-85
2022/04/04 06:07:42;;;;;;;118.67;41.90;;;0.80;99.90;;;;;;10369135;28;20034;-86
2022/04/04 06:12:44;;;;;;;121.13;44.00;;;0.90;99.90;;;;;;10361434;28;20025;-86
2022/04/04 06:17:44;;;;;;;78.50;33.83;;;1.10;99.90;;;;;;10366436;28;20037;-82
2022/04/04 06:22:45;;;;;;;82.43;35.77;;;1.20;99.90;;;;;;10369443;28;20059;-83
2022/04/04 06:27:46;;;;;;;47.37;22.33;;;1.30;99.90;;;;;;10356508;28;21001;-83
2022/04/04 06:32:47;;;;;;;72.37;33.70;;;1.40;99.90;;;;;;10368778;28;20025;-84
2022/04/04 06:37:47;;;;;;;51.60;22.70;;;1.60;99.90;;;;;;10370826;28;20037;-83
2022/04/04 06:42:49;;;;;;;48.33;23.90;;;1.60;99.90;;;;;;10368762;28;20145;-82
2022/04/04 06:47:51;;;;;;;61.80;29.80;;;1.70;99.90;;;;;;10367280;28;20022;-83
2022/04/04 06:52:52;;;;;;;49.87;24.00;;;1.90;99.90;;;;;;10368617;28;20053;-85
2022/04/04 06:57:53;;;;;;;36.77;18.53;;;2.10;99.90;;;;;;10370070;28;20069;-82
2022/04/04 07:02:55;;;;;;;39.73;20.00;;;2.20;99.90;;;;;;10370747;28;20481;-82
2022/04/04 07:07:56;;;;;;;29.87;17.53;;;2.20;99.90;;;;;;10370051;28;20025;-83
2022/04/04 07:12:57;;;;;;;44.43;22.93;;;2.20;99.90;;;;;;10370322;28;20041;-83
2022/04/04 07:17:57;;;;;;;50.63;26.53;;;2.10;99.90;;;;;;10369376;28;20553;-83
2022/04/04 07:22:59;;;;;;;75.13;35.80;;;2.00;99.90;;;;;;10369899;28;20029;-81
2022/04/04 07:27:59;;;;;;;54.83;30.03;;;1.90;99.90;;;;;;10370352;28;20033;-82
2022/04/04 07:33:03;;;;;;;50.33;26.47;;;1.50;99.90;;;;;;10369594;28;20022;-86
2022/04/04 07:38:04;;;;;;;57.83;28.13;;;1.40;99.90;;;;;;10351399;28;20038;-81
2022/04/04 07:43:05;;;;;;;39.93;20.50;;;1.60;99.90;;;;;;10369396;28;20126;-84
2022/04/04 07:48:06;;;;;;;51.97;27.57;;;1.60;99.90;;;;;;10368899;28;20025;-85
2022/04/04 07:53:06;;;;;;;87.00;44.57;;;1.80;99.90;;;;;;10368757;28;20029;-84
2022/04/04 07:58:07;;;;;;;54.73;29.70;;;2.10;99.90;;;;;;10367928;28;20030;-82
2022/04/04 08:03:07;;;;;;;83.07;42.73;;;2.40;99.90;;;;;;10368227;28;20026;-82
2022/04/04 08:08:08;;;;;;;80.00;37.80;;;3.10;99.90;;;;;;10367921;28;20049;-82
2022/04/04 08:13:09;;;;;;;44.33;23.37;;;3.70;99.90;;;;;;10368198;28;20033;-81
2022/04/04 08:18:10;;;;;;;58.70;28.73;;;4.50;99.90;;;;;;10367764;28;20080;-82
2022/04/04 08:23:10;;;;;;;96.60;44.13;;;4.60;99.90;;;;;;10367533;28;20478;-83
2022/04/04 08:28:11;;;;;;;73.13;33.40;;;4.70;99.90;;;;;;10367689;28;20101;-83
2022/04/04 08:33:12;;;;;;;29.03;18.63;;;4.80;99.90;;;;;;10367205;28;20076;-86
2022/04/04 08:38:13;;;;;;;85.40;41.50;;;4.90;99.90;;;;;;10367128;28;20486;-82
2022/04/04 08:43:15;;;;;;;82.80;36.43;;;5.00;99.90;;;;;;10368029;28;20050;-85
2022/04/04 08:48:17;;;;;;;33.53;18.20;;;5.10;99.90;;;;;;10368067;28;20025;-83
2022/04/04 08:53:18;;;;;;;67.07;28.87;;;5.30;99.90;;;;;;10367461;28;20030;-82
2022/04/04 08:58:18;;;;;;;86.37;40.63;;;5.40;99.90;;;;;;10366826;28;20042;-84
2022/04/04 09:03:22;;;;;;;35.97;19.00;;;5.50;99.90;;;;;;10366599;28;20113;-83
2022/04/04 09:08:23;;;;;;;32.57;17.13;;;6.00;99.90;;;;;;10366824;28;20026;-86
2022/04/04 09:13:25;;;;;;;37.47;18.67;;;6.00;99.90;;;;;;10372118;28;20615;-83
2022/04/04 09:18:41;;;;;;;56.63;28.37;;;5.50;99.90;;;;;;10374790;28;20037;-85
2022/04/04 09:23:45;;;;;;;27.60;15.60;;;5.20;99.90;;;;;;10374443;28;20173;-88
2022/04/04 09:28:46;;;;;;;23.93;12.03;;;5.60;99.90;;;;;;10374292;28;20026;-83
2022/04/04 09:33:46;;;;;;;27.60;14.43;;;5.90;99.90;;;;;;10373510;28;20386;-86
2022/04/04 09:39:08;;;;;;;28.17;15.93;;;6.20;99.90;;;;;;10373714;28;20053;-88
2022/04/04 09:44:11;;;;;;;32.20;16.47;;;6.50;97.90;;;;;;10355801;28;20046;-86
2022/04/04 09:49:15;;;;;;;21.07;11.57;;;6.70;99.90;;;;;;10355967;28;20029;-88
2022/04/04 09:54:18;;;;;;;25.47;13.47;;;7.00;99.90;;;;;;10355204;28;20141;-82
2022/04/04 09:59:19;;;;;;;16.37;10.63;;;7.20;99.90;;;;;;10373236;28;20073;-85
2022/04/04 10:04:20;;;;;;;18.87;11.23;;;7.40;96.30;;;;;;10355333;28;20124;-86
2022/04/04 10:09:22;;;;;;;17.87;10.80;;;7.50;98.70;;;;;;10354574;28;20072;-83
2022/04/04 10:14:23;;;;;;;23.37;12.97;;;7.70;97.50;;;;;;10372699;28;20026;-82
2022/04/04 10:19:27;;;;;;;20.93;11.60;;;8.00;97.60;;;;;;10372173;28;20473;-81
2022/04/04 10:24:28;;;;;;;18.47;10.27;;;8.30;96.70;;;;;;10371655;28;20134;-82
2022/04/04 10:29:39;;;;;;;23.70;13.80;;;8.40;95.90;;;;;;10354114;28;20782;-83
2022/04/04 10:34:43;;;;;;;21.13;10.80;;;8.50;99.90;;;;;;10354276;28;20099;-84
2022/04/04 10:39:47;;;;;;;12.83;7.70;;;8.50;91.60;;;;;;10353763;28;20061;-85
2022/04/04 10:44:49;;;;;;;12.27;7.97;;;8.20;91.10;;;;;;10353268;28;20022;-85
2022/04/04 10:49:50;;;;;;;20.63;10.87;;;8.00;84.20;;;;;;10371699;28;20053;-85
2022/04/04 10:54:52;;;;;;;28.20;16.03;;;8.10;91.40;;;;;;10370377;28;20065;-85
2022/04/04 10:59:57;;;;;;;14.97;9.37;;;8.10;89.20;;;;;;10370871;28;20064;-83
2022/04/04 11:10:38;;;;;;;13.90;8.73;;;8.00;91.90;;;;;;10370642;28;20037;-85
2022/04/04 11:15:43;;;;;;;16.80;10.57;;;8.60;87.40;;;;;;10369591;28;20744;-82
2022/04/04 11:20:50;;;;;;;15.40;8.97;;;8.40;86.10;;;;;;10369931;28;20701;-86
2022/04/04 11:25:53;;;;;;;15.83;9.87;;;8.20;85.30;;;;;;10369989;28;20023;-85
2022/04/04 11:30:54;;;;;;;15.83;8.93;;;8.30;82.90;;;;;;10370200;28;20083;-86
2022/04/04 11:35:55;;;;;;;11.53;7.50;;;8.30;84.30;;;;;;10368320;28;20057;-83
2022/04/04 11:40:56;;;;;;;12.97;7.53;;;8.30;82.00;;;;;;10369131;28;20093;-84
2022/04/04 11:45:57;;;;;;;11.80;7.43;;;8.20;82.40;;;;;;10369028;28;20113;-84
2022/04/04 11:50:58;;;;;;;14.20;8.57;;;8.30;80.40;;;;;;10350901;28;20109;-83
2022/04/04 11:56:08;;;;;;;22.37;12.47;;;8.10;81.10;;;;;;10368414;28;20045;-83
2022/04/04 12:01:09;;;;;;;15.87;11.40;;;7.80;79.00;;;;;;10350933;28;20036;-84
2022/04/04 12:06:10;;;;;;;15.00;9.07;;;7.30;80.20;;;;;;10368020;28;20029;-81
2022/04/04 12:11:11;;;;;;;11.43;7.77;;;7.20;79.90;;;;;;10368146;28;20029;-82
2022/04/04 12:16:12;;;;;;;13.63;8.40;;;6.90;79.60;;;;;;10368092;28;20486;-82
2022/04/04 12:21:12;;;;;;;12.70;8.03;;;6.90;80.40;;;;;;10368037;28;20065;-84
2022/04/04 12:26:14;;;;;;;12.17;7.40;;;6.80;80.50;;;;;;10367623;28;20045;-83
2022/04/04 12:31:21;;;;;;;14.03;9.43;;;6.60;80.50;;;;;;10367392;28;20038;-82
2022/04/04 12:36:32;;;;;;;13.47;8.30;;;6.70;83.70;;;;;;10368192;28;20040;-84
2022/04/04 12:41:56;;;;;;;11.33;8.03;;;6.90;79.70;;;;;;10360268;28;20054;-83
2022/04/04 12:47:12;;;;;;;14.07;8.80;;;6.70;79.80;;;;;;10354194;28;20084;-85
2022/04/04 12:52:13;;;;;;;15.68;9.30;;;6.50;80.80;;;;;;10354552;28;20026;-81
2022/04/04 12:57:26;;;;;;;13.97;8.90;;;6.50;82.20;;;;;;10333190;28;20064;-84
2022/04/04 13:02:33;;;;;;;14.70;9.97;;;6.50;81.80;;;;;;10334386;28;20111;-82
2022/04/04 13:07:33;;;;;;;19.47;10.47;;;6.40;81.80;;;;;;10346726;28;20026;-86
2022/04/04 13:12:35;;;;;;;11.17;6.87;;;7.00;80.60;;;;;;10374900;28;20741;-82
2022/04/04 13:17:39;;;;;;;15.70;8.60;;;7.10;77.50;;;;;;10375012;28;20065;-84
2022/04/04 13:22:41;;;;;;;61.03;26.47;;;6.90;76.90;;;;;;10355865;28;20034;-85
2022/04/04 13:27:42;;;;;;;14.97;9.27;;;6.50;77.40;;;;;;10355840;28;20044;-82
2022/04/04 13:32:43;;;;;;;37.27;15.20;;;6.40;79.00;;;;;;10368467;28;20087;-84
2022/04/04 13:37:43;;;;;;;36.63;14.53;;;6.80;79.20;;;;;;10355019;28;20029;-82
2022/04/04 13:42:44;;;;;;;27.53;12.50;;;6.50;77.80;;;;;;10372809;28;20056;-84
2022/04/04 13:47:45;;;;;;;36.27;14.53;;;6.40;77.00;;;;;;10357843;28;20053;-82
2022/04/04 13:52:45;;;;;;;22.90;11.37;;;6.40;78.00;;;;;;10333173;28;20080;-83
2022/04/04 13:57:46;;;;;;;28.80;13.80;;;6.40;77.30;;;;;;10342798;28;20103;-82
2022/04/04 14:02:47;;;;;;;30.10;12.50;;;6.30;76.10;;;;;;10332593;28;20057;-81
2022/04/04 14:07:47;;;;;;;17.23;8.77;;;6.30;76.40;;;;;;10331993;28;20386;-83
2022/04/04 14:12:48;;;;;;;27.83;13.07;;;6.40;76.20;;;;;;10331685;28;20030;-83
2022/04/04 14:17:49;;;;;;;14.53;8.53;;;6.40;75.10;;;;;;10343062;28;20386;-84
2022/04/04 14:22:50;;;;;;;23.03;11.93;;;6.50;75.90;;;;;;10331522;28;20029;-82
2022/04/04 14:27:50;;;;;;;20.93;10.10;;;6.70;75.40;;;;;;10313784;28;20026;-85
2022/04/04 14:32:52;;;;;;;29.13;13.57;;;6.80;73.90;;;;;;10331154;28;20030;-82
2022/04/04 14:37:53;;;;;;;17.20;9.70;;;6.70;72.90;;;;;;10330779;28;20035;-83
2022/04/04 14:42:54;;;;;;;22.30;12.00;;;6.50;72.40;;;;;;10331489;28;20494;-82
2022/04/04 14:47:54;;;;;;;35.10;16.03;;;6.50;73.70;;;;;;10330801;28;20040;-83
2022/04/04 14:52:55;;;;;;;34.23;15.60;;;6.60;75.00;;;;;;10330249;28;20026;-82
2022/04/04 14:57:56;;;;;;;30.60;15.77;;;6.60;74.90;;;;;;10330209;28;20037;-82
2022/04/04 15:02:56;;;;;;;31.90;19.13;;;6.50;74.50;;;;;;10330248;28;20034;-81
2022/04/04 15:07:57;;;;;;;24.67;12.87;;;6.50;74.40;;;;;;10352563;28;20402;-82
2022/04/04 15:12:58;;;;;;;19.07;12.13;;;6.50;73.00;;;;;;10368969;28;20037;-86
2022/04/04 15:17:58;;;;;;;28.20;15.50;;;6.40;73.80;;;;;;10368375;28;20029;-81
2022/04/04 15:22:59;;;;;;;14.83;8.10;;;6.40;73.00;;;;;;10369643;28;20105;-82
2022/04/04 15:28:00;;;;;;;12.87;7.70;;;6.40;71.60;;;;;;10369412;28;20421;-83
2022/04/04 15:33:01;;;;;;;14.77;6.63;;;6.60;70.00;;;;;;10369350;28;20026;-83
2022/04/04 15:38:02;;;;;;;11.07;6.83;;;6.70;70.70;;;;;;10368888;28;20038;-82
2022/04/04 15:43:03;;;;;;;15.57;9.40;;;6.70;70.70;;;;;;10368823;28;20527;-84
2022/04/04 15:48:05;;;;;;;10.13;7.00;;;6.70;69.40;;;;;;10368954;28;20034;-83
2022/04/04 15:53:06;;;;;;;10.33;6.40;;;6.60;70.00;;;;;;10368525;28;20105;-82
2022/04/04 15:58:06;;;;;;;17.43;8.50;;;6.50;69.20;;;;;;10368564;28;20646;-82
2022/04/04 16:03:07;;;;;;;13.30;7.77;;;6.30;69.00;;;;;;10368423;28;20469;-83
2022/04/04 16:08:08;;;;;;;10.50;6.10;;;6.20;69.10;;;;;;10350896;28;20069;-82
2022/04/04 16:13:08;;;;;;;17.60;8.63;;;6.20;69.50;;;;;;10368587;28;20030;-83
2022/04/04 16:18:09;;;;;;;24.43;10.30;;;6.00;70.20;;;;;;10350568;28;20046;-83
2022/04/04 16:23:09;;;;;;;15.93;8.17;;;6.00;69.80;;;;;;10349770;28;20026;-81
2022/04/04 16:28:10;;;;;;;15.83;8.07;;;5.80;69.80;;;;;;10368507;28;20036;-81
2022/04/04 16:33:11;;;;;;;52.87;21.33;;;5.70;69.90;;;;;;10368005;28;20030;-82
2022/04/04 16:38:11;;;;;;;64.77;25.17;;;5.60;69.90;;;;;;10349530;28;20034;-81
2022/04/04 16:43:12;;;;;;;84.27;31.60;;;5.50;70.20;;;;;;10349266;28;20056;-81
2022/04/04 16:48:13;;;;;;;84.77;33.63;;;5.40;71.10;;;;;;10366726;28;20429;-80
2022/04/04 16:53:13;;;;;;;120.27;46.07;;;5.30;71.30;;;;;;10361939;28;20030;-84
2022/04/04 16:58:14;;;;;;;185.27;63.83;;;5.10;71.70;;;;;;10366225;28;20556;-79
2022/04/04 17:03:15;;;;;;;207.13;65.93;;;5.10;72.00;;;;;;10365447;28;20036;-81
2022/04/04 17:08:16;;;;;;;112.07;37.90;;;5.00;72.30;;;;;;10365168;28;20025;-84
2022/04/04 17:13:17;;;;;;;181.40;59.67;;;5.00;71.70;;;;;;10365100;28;20037;-81
2022/04/04 17:18:17;;;;;;;48.37;15.37;;;4.90;72.10;;;;;;10366326;28;20049;-85
2022/04/04 17:23:18;;;;;;;42.87;14.70;;;4.80;70.60;;;;;;10365580;28;20046;-81
2022/04/04 17:28:19;;;;;;;65.33;22.73;;;4.90;70.90;;;;;;10365475;28;20029;-81
2022/04/04 17:33:20;;;;;;;42.90;16.70;;;4.90;70.80;;;;;;10351622;28;20029;-82
2022/04/04 17:38:21;;;;;;;46.67;16.73;;;4.90;70.70;;;;;;10355063;28;20390;-83
2022/04/04 17:43:22;;;;;;;89.47;31.33;;;4.90;70.30;;;;;;10371858;28;20042;-82
2022/04/04 17:48:23;;;;;;;48.97;16.27;;;5.00;70.50;;;;;;10372863;28;20030;-81
2022/04/04 17:53:24;;;;;;;40.07;13.73;;;4.90;70.20;;;;;;10368696;28;20386;-82
2022/04/04 17:58:24;;;;;;;44.67;16.87;;;5.00;70.80;;;;;;10371549;28;20050;-81
2022/04/04 18:03:25;;;;;;;27.93;12.13;;;5.00;71.20;;;;;;10362031;28;20026;-81
2022/04/04 18:08:26;;;;;;;70.63;23.60;;;5.00;71.30;;;;;;10370711;28;20520;-81
2022/04/04 18:13:26;;;;;;;47.13;16.80;;;5.00;71.90;;;;;;10370240;28;20022;-81
2022/04/04 18:18:27;;;;;;;80.80;26.33;;;5.10;71.80;;;;;;10371580;28;20489;-81
2022/04/04 18:23:28;;;;;;;36.10;13.43;;;5.10;72.10;;;;;;10370817;28;20451;-82
2022/04/04 18:28:28;;;;;;;54.07;19.17;;;5.10;72.30;;;;;;10372338;28;20026;-82
2022/04/04 18:33:29;;;;;;;44.23;15.57;;;5.10;72.50;;;;;;10369733;28;20030;-81
2022/04/04 18:38:30;;;;;;;28.13;12.67;;;5.10;73.20;;;;;;10370415;28;20524;-82
2022/04/04 18:43:31;;;;;;;79.90;29.67;;;5.10;72.80;;;;;;10362246;28;20137;-80
2022/04/04 18:48:32;;;;;;;53.30;19.50;;;5.10;73.50;;;;;;10358140;28;20366;-81
2022/04/04 18:53:32;;;;;;;43.50;18.17;;;5.10;73.80;;;;;;10344997;28;20030;-81
2022/04/04 18:58:34;;;;;;;45.10;18.40;;;5.20;73.90;;;;;;10358594;28;20046;-83
2022/04/04 19:03:35;;;;;;;45.23;18.20;;;5.20;73.90;;;;;;10354198;28;20309;-86
2022/04/04 19:08:36;;;;;;;43.73;19.27;;;5.20;74.10;;;;;;10357653;28;20122;-82
2022/04/04 19:13:37;;;;;;;38.00;15.87;;;5.20;74.70;;;;;;10361889;28;20593;-80
2022/04/04 19:18:40;;;;;;;42.83;17.27;;;5.10;74.60;;;;;;10359222;28;20125;-82
2022/04/04 19:23:40;;;;;;;39.47;17.20;;;5.10;75.50;;;;;;10368531;28;20034;-83
2022/04/04 19:28:41;;;;;;;39.53;18.43;;;5.10;75.20;;;;;;10369239;28;20040;-85
2022/04/04 19:33:45;;;;;;;29.97;15.23;;;5.10;75.70;;;;;;10369111;28;20034;-81
2022/04/04 19:38:46;;;;;;;41.00;18.43;;;5.10;75.80;;;;;;10369350;28;20045;-82
2022/04/04 19:43:47;;;;;;;35.57;16.57;;;5.10;76.40;;;;;;10365859;28;20026;-82
2022/04/04 19:48:47;;;;;;;38.77;14.60;;;5.20;76.60;;;;;;10339014;28;20038;-80
2022/04/04 19:53:49;;;;;;;37.90;14.37;;;5.20;76.80;;;;;;10364789;28;20037;-83
2022/04/04 19:58:49;;;;;;;24.43;13.63;;;5.10;76.90;;;;;;10355077;28;20041;-80
2022/04/04 20:03:51;;;;;;;31.60;14.33;;;5.20;77.00;;;;;;10350490;28;20030;-81
2022/04/04 20:08:52;;;;;;;21.70;12.13;;;5.20;77.30;;;;;;10367394;28;20038;-83
2022/04/04 20:13:53;;;;;;;31.97;16.00;;;5.30;77.30;;;;;;10368112;28;20022;-82
2022/04/04 20:18:54;;;;;;;21.00;11.37;;;5.30;78.20;;;;;;10355500;28;20036;-80
2022/04/04 20:23:54;;;;;;;21.00;11.77;;;5.30;79.20;;;;;;10357852;28;20033;-82
2022/04/04 20:28:55;;;;;;;17.83;10.47;;;5.30;78.60;;;;;;10368244;28;20038;-83
2022/04/04 20:33:55;;;;;;;19.37;10.23;;;5.20;78.80;;;;;;10364799;28;20132;-80
2022/04/04 20:38:56;;;;;;;18.90;11.23;;;5.20;79.60;;;;;;10367284;28;20088;-81
2022/04/04 20:43:57;;;;;;;25.13;13.40;;;5.10;80.40;;;;;;10352730;28;20031;-82
2022/04/04 20:48:57;;;;;;;20.30;10.63;;;5.00;81.10;;;;;;10362442;28;20032;-81
2022/04/04 20:53:59;;;;;;;25.73;13.70;;;5.00;81.60;;;;;;10367484;28;20034;-81
2022/04/04 20:58:59;;;;;;;23.30;11.77;;;5.00;82.20;;;;;;10367354;28;20072;-81
2022/04/04 21:04:00;;;;;;;23.23;12.97;;;4.90;82.60;;;;;;10366171;28;20070;-81
2022/04/04 21:09:06;;;;;;;25.73;14.10;;;4.90;83.10;;;;;;10372969;28;20033;-81
2022/04/04 21:14:07;;;;;;;;;;;4.90;84.10;;;;;;10375221;28;20026;-80
2022/04/04 21:19:08;;;;;;;26.30;12.57;;;4.80;85.70;;;;;;10374099;28;19921;-79
2022/04/04 21:24:09;;;;;;;22.70;12.07;;;4.70;85.40;;;;;;10373587;28;20092;-81
2022/04/04 21:29:10;;;;;;;23.03;12.67;;;4.70;85.80;;;;;;10370512;28;20022;-82
2022/04/04 21:34:10;;;;;;;20.87;10.97;;;4.70;86.00;;;;;;10352250;28;20385;-82
2022/04/04 21:39:11;;;;;;;24.00;10.97;;;4.70;85.90;;;;;;10372934;28;20058;-80
2022/04/04 21:44:12;;;;;;;18.70;11.00;;;4.70;85.80;;;;;;10361901;28;20057;-82
2022/04/04 21:49:12;;;;;;;19.73;11.07;;;4.70;85.70;;;;;;10359309;28;20091;-81
2022/04/04 21:54:13;;;;;;;15.53;9.57;;;4.70;85.80;;;;;;10363891;28;20547;-80
2022/04/04 21:59:13;;;;;;;16.57;9.30;;;4.70;85.60;;;;;;10338444;28;20044;-82
2022/04/04 22:04:14;;;;;;;21.63;12.47;;;4.70;85.80;;;;;;10366867;28;20053;-82
2022/04/04 22:09:15;;;;;;;17.27;10.67;;;4.70;86.30;;;;;;10344016;28;20026;-80
2022/04/04 22:14:17;;;;;;;15.80;8.93;;;4.70;86.10;;;;;;10372193;28;20025;-81
2022/04/04 22:19:17;;;;;;;19.20;10.80;;;4.70;86.70;;;;;;10353577;28;20521;-81
2022/04/04 22:24:18;;;;;;;20.67;12.10;;;4.70;87.20;;;;;;10371298;28;20033;-80
2022/04/04 22:29:19;;;;;;;17.63;10.50;;;4.60;87.80;;;;;;10372250;28;20069;-81
2022/04/04 22:34:19;;;;;;;21.33;12.03;;;4.60;88.60;;;;;;10370515;28;20113;-80
2022/04/04 22:39:20;;;;;;;24.03;12.23;;;4.50;89.60;;;;;;10370105;28;20054;-80
2022/04/04 22:44:22;;;;;;;20.27;11.93;;;4.40;90.90;;;;;;10371781;28;20044;-81
2022/04/04 22:49:23;;;;;;;19.17;11.23;;;4.30;92.30;;;;;;10370298;28;20026;-81
2022/04/04 22:54:23;;;;;;;20.17;11.40;;;4.20;94.90;;;;;;10371811;28;20045;-80
2022/04/04 22:59:24;;;;;;;20.10;11.67;;;4.10;96.50;;;;;;10371266;28;20041;-80
2022/04/04 23:04:25;;;;;;;24.73;12.47;;;4.00;99.70;;;;;;10340962;28;20041;-81
2022/04/04 23:09:25;;;;;;;29.73;17.13;;;3.80;99.90;;;;;;10352191;28;20070;-81
2022/04/04 23:14:26;;;;;;;24.97;15.43;;;3.70;99.90;;;;;;10358524;28;20029;-81
2022/04/04 23:19:26;;;;;;;26.83;14.80;;;3.50;99.90;;;;;;10369528;28;20054;-81
2022/04/04 23:24:27;;;;;;;24.50;14.63;;;3.40;99.90;;;;;;10369378;28;20029;-81
2022/04/04 23:29:28;;;;;;;22.50;13.33;;;3.30;99.90;;;;;;10359688;28;20045;-81
2022/04/04 23:34:28;;;;;;;31.03;16.63;;;3.10;99.90;;;;;;10361292;28;20496;-81
2022/04/04 23:39:29;;;;;;;34.27;19.60;;;3.10;99.90;;;;;;10365250;28;20884;-82
2022/04/04 23:44:29;;;;;;;39.17;21.20;;;2.90;99.90;;;;;;10338906;28;20110;-80
2022/04/04 23:49:31;;;;;;;49.93;27.77;;;2.80;99.90;;;;;;10352184;28;20095;-81
2022/04/04 23:54:32;;;;;;;40.73;23.73;;;2.60;99.90;;;;;;10351160;28;20046;-82
2022/04/04 23:59:32;;;;;;;42.30;22.77;;;2.50;99.90;;;;;;10328776;28;20053;-83
